createdAt,value
2022-12-05T00:02:14.255Z,45.35
2022-12-05T00:04:44.159Z,45.49
2022-12-05T00:07:12.783Z,45.45
2022-12-05T00:09:41.820Z,45.68
2022-12-05T00:12:12.194Z,45.33
2022-12-05T00:14:40.844Z,45.62
2022-12-05T00:17:09.367Z,45.81
2022-12-05T00:19:40.196Z,45.75
2022-12-05T00:22:08.676Z,45.77
2022-12-05T00:24:37.108Z,45.51
2022-12-05T00:27:05.524Z,45.91
2022-12-05T00:29:34.045Z,45.69
2022-12-05T00:32:02.598Z,45.89
2022-12-05T00:34:31.143Z,45.50
2022-12-05T00:37:00.928Z,45.72
2022-12-05T00:39:29.427Z,45.80
2022-12-05T00:41:57.887Z,45.63
2022-12-05T00:44:26.370Z,45.75
2022-12-05T00:46:54.816Z,45.69
2022-12-05T00:49:23.271Z,45.69
2022-12-05T00:51:52.558Z,45.69
2022-12-05T00:54:22.359Z,45.45
2022-12-05T00:56:52.464Z,45.60
2022-12-05T00:59:21.071Z,45.41
2022-12-05T01:01:50.904Z,45.57
2022-12-05T01:04:22.324Z,45.74
2022-12-05T01:06:52.114Z,45.80
2022-12-05T01:09:22.573Z,45.63
2022-12-05T01:11:52.126Z,45.64
2022-12-05T01:14:22.506Z,45.88
2022-12-05T01:16:52.779Z,45.78
2022-12-05T01:19:23.998Z,45.86
2022-12-05T01:21:53.195Z,45.72
2022-12-05T01:24:23.746Z,45.37
2022-12-05T01:26:52.334Z,45.91
2022-12-05T01:29:22.238Z,45.82
2022-12-05T01:31:51.158Z,45.59
2022-12-05T01:34:20.359Z,45.79
2022-12-05T01:36:49.046Z,45.89
2022-12-05T01:39:18.243Z,45.79
2022-12-05T01:41:50.258Z,45.76
2022-12-05T01:44:54.955Z,45.98
2022-12-05T01:47:26.767Z,45.71
2022-12-05T01:49:55.928Z,45.64
2022-12-05T01:52:27.912Z,45.64
2022-12-05T01:54:59.115Z,45.66
2022-12-05T01:57:29.359Z,45.90
2022-12-05T02:00:03.010Z,45.84
2022-12-05T02:02:48.009Z,45.80
2022-12-05T02:05:21.291Z,46.02
2022-12-05T02:07:51.280Z,45.85
2022-12-05T02:10:20.450Z,46.06
2022-12-05T02:12:52.405Z,45.83
2022-12-05T02:15:34.950Z,45.98
2022-12-05T02:18:16.171Z,45.97
2022-12-05T02:20:56.745Z,45.77
2022-12-05T02:23:52.543Z,45.99
2022-12-05T02:27:14.424Z,45.94
2022-12-05T02:30:03.348Z,45.72
2022-12-05T02:32:43.135Z,45.88
2022-12-05T02:35:22.734Z,45.95
2022-12-05T02:37:58.635Z,46.03
2022-12-05T02:40:31.910Z,46.03
2022-12-05T02:43:03.566Z,45.79
2022-12-05T02:45:37.733Z,45.74
2022-12-05T02:48:07.198Z,45.91
2022-12-05T02:50:39.437Z,45.90
2022-12-05T02:53:12.449Z,45.65
2022-12-05T02:55:42.490Z,45.67
2022-12-05T02:58:17.022Z,45.84
2022-12-05T03:00:49.893Z,45.97
2022-12-05T03:03:21.870Z,45.65
2022-12-05T03:05:56.321Z,45.58
2022-12-05T03:08:29.314Z,45.83
2022-12-05T03:10:59.673Z,45.75
2022-12-05T03:13:32.937Z,45.76
2022-12-05T03:16:08.352Z,45.79
2022-12-05T03:18:40.486Z,45.63
2022-12-05T03:21:16.287Z,45.47
2022-12-05T03:23:48.468Z,45.70
2022-12-05T03:26:27.440Z,45.40
2022-12-05T03:29:02.126Z,45.74
2022-12-05T03:31:43.419Z,45.41
2022-12-05T03:34:19.312Z,45.49
2022-12-05T03:36:52.637Z,45.68
2022-12-05T03:39:24.727Z,45.77
2022-12-05T03:42:00.776Z,45.95
2022-12-05T03:44:35.592Z,45.57
2022-12-05T03:47:13.450Z,45.58
2022-12-05T03:49:48.243Z,45.58
2022-12-05T03:52:21.162Z,45.49
2022-12-05T03:54:54.337Z,45.69
2022-12-05T03:57:26.866Z,45.28
2022-12-05T03:59:58.528Z,45.79
2022-12-05T04:02:32.990Z,45.77
2022-12-05T04:05:06.868Z,45.82
2022-12-05T04:07:39.154Z,45.54
2022-12-05T04:10:13.640Z,45.69
2022-12-05T04:12:45.371Z,45.55
2022-12-05T04:15:18.030Z,45.68
2022-12-05T04:17:53.744Z,45.70
2022-12-05T04:20:46.302Z,45.69
2022-12-05T04:23:15.378Z,45.51
2022-12-05T04:25:57.548Z,45.49
2022-12-05T04:28:33.602Z,45.62
2022-12-05T04:31:06.747Z,45.42
2022-12-05T04:33:45.390Z,45.65
2022-12-05T04:36:20.518Z,45.61
2022-12-05T04:38:52.766Z,45.44
2022-12-05T04:41:25.371Z,45.32
2022-12-05T04:43:56.699Z,45.27
2022-12-05T04:46:26.102Z,45.23
2022-12-05T04:49:00.094Z,45.26
2022-12-05T04:51:34.159Z,45.38
2022-12-05T04:54:05.999Z,45.11
2022-12-05T04:56:37.926Z,45.22
2022-12-05T04:59:07.011Z,45.42
2022-12-05T05:01:40.709Z,45.20
2022-12-05T05:04:14.837Z,45.40
2022-12-05T05:06:43.827Z,45.56
2022-12-05T05:09:12.563Z,45.46
2022-12-05T05:11:41.139Z,45.24
2022-12-05T05:14:09.587Z,45.40
2022-12-05T05:16:40.092Z,45.34
2022-12-05T05:19:12.082Z,45.34
2022-12-05T05:21:42.376Z,45.02
2022-12-05T05:24:12.076Z,44.78
2022-12-05T05:26:42.516Z,44.94
2022-12-05T05:29:12.036Z,45.06
2022-12-05T07:01:29.676Z,42.82
2022-12-05T07:04:00.367Z,42.72
2022-12-05T07:06:29.468Z,42.72
2022-12-05T07:08:58.151Z,42.55
2022-12-05T07:11:26.890Z,42.55
2022-12-05T07:13:55.309Z,42.31
2022-12-05T07:16:24.205Z,42.66
2022-12-05T07:18:52.694Z,42.69
2022-12-05T07:21:22.481Z,42.82
2022-12-05T07:23:51.343Z,42.48
2022-12-05T07:26:21.531Z,42.22
2022-12-05T07:28:51.019Z,42.05
2022-12-05T07:31:22.999Z,42.22
2022-12-05T07:33:51.564Z,42.27
2022-12-05T07:36:23.391Z,42.18
2022-12-05T07:38:56.655Z,42.40
2022-12-05T07:41:26.942Z,42.46
2022-12-05T07:43:57.536Z,42.44
2022-12-05T07:46:27.581Z,42.11
2022-12-05T07:48:56.187Z,42.38
2022-12-05T07:51:26.048Z,42.09
2022-12-05T07:53:54.436Z,42.07
2022-12-05T07:56:23.002Z,42.44
2022-12-05T07:58:51.864Z,42.26
2022-12-05T08:01:22.530Z,42.42
2022-12-05T08:03:51.442Z,42.29
2022-12-05T08:06:22.220Z,42.20
2022-12-05T08:08:52.383Z,42.25
2022-12-05T08:11:22.887Z,41.93
2022-12-05T08:13:51.653Z,42.13
2022-12-05T08:16:22.952Z,42.14
2022-12-05T08:18:55.333Z,42.08
2022-12-05T08:21:25.088Z,42.49
2022-12-05T08:23:55.375Z,42.38
2022-12-05T08:26:26.444Z,42.18
2022-12-05T08:28:56.668Z,42.43
2022-12-05T08:31:28.947Z,41.94
2022-12-05T08:33:59.235Z,42.36
2022-12-05T08:36:29.403Z,42.00
2022-12-05T08:39:00.884Z,42.17
2022-12-05T08:41:30.268Z,42.20
2022-12-05T08:44:01.321Z,42.29
2022-12-05T08:46:29.928Z,42.01
2022-12-05T08:48:58.376Z,41.88
2022-12-05T08:51:26.912Z,42.30
2022-12-05T08:53:56.232Z,41.81
2022-12-05T08:56:27.481Z,42.23
2022-12-05T08:59:04.419Z,42.08
2022-12-05T09:01:34.455Z,41.97
2022-12-05T09:04:04.504Z,41.79
2022-12-05T09:06:34.323Z,42.20
2022-12-05T09:09:07.587Z,42.28
2022-12-05T09:11:40.793Z,41.76
2022-12-05T09:14:09.457Z,41.87
2022-12-05T09:16:40.871Z,42.12
2022-12-05T09:19:13.640Z,41.87
2022-12-05T09:21:43.242Z,41.90
2022-12-05T09:24:12.907Z,41.98
2022-12-05T09:26:43.376Z,41.86
2022-12-05T09:29:16.674Z,41.78
2022-12-05T09:31:48.439Z,42.11
2022-12-05T09:34:18.233Z,42.02
2022-12-05T09:36:55.724Z,41.71
2022-12-05T09:39:26.972Z,42.00
2022-12-05T09:42:19.197Z,41.97
2022-12-05T09:45:03.993Z,42.00
2022-12-05T09:47:42.739Z,41.63
2022-12-05T09:50:19.941Z,42.00
2022-12-05T09:53:00.734Z,41.68
2022-12-05T09:55:36.942Z,42.04
2022-12-05T09:58:20.546Z,42.08
2022-12-05T10:00:52.804Z,41.63
2022-12-05T10:03:29.922Z,41.80
2022-12-05T10:06:09.239Z,41.70
2022-12-05T10:08:50.731Z,41.71
2022-12-05T10:11:26.320Z,42.04
2022-12-05T10:14:03.772Z,41.48
2022-12-05T10:16:35.907Z,42.02
2022-12-05T10:19:08.247Z,41.62
2022-12-05T10:21:43.232Z,41.99
2022-12-05T10:24:15.305Z,41.90
2022-12-05T10:26:46.309Z,41.92
2022-12-05T10:29:27.026Z,41.70
2022-12-05T10:32:03.517Z,41.91
2022-12-05T10:34:35.015Z,41.69
2022-12-05T10:37:14.902Z,41.68
2022-12-05T10:39:43.834Z,41.91
2022-12-05T10:42:15.814Z,41.70
2022-12-05T10:44:46.135Z,41.70
2022-12-05T10:47:14.879Z,41.99
2022-12-05T10:49:43.783Z,41.55
2022-12-05T10:52:14.572Z,41.65
2022-12-05T10:54:48.194Z,41.79
2022-12-05T10:57:24.922Z,41.75
2022-12-05T10:59:56.567Z,42.02
2022-12-05T11:02:28.884Z,41.55
2022-12-05T11:04:58.540Z,41.78
2022-12-05T11:07:32.761Z,41.86
2022-12-05T11:10:02.305Z,41.52
2022-12-05T11:12:39.058Z,41.76
2022-12-05T11:15:24.840Z,42.36
2022-12-05T11:17:54.992Z,42.96
2022-12-05T11:20:41.200Z,43.17
2022-12-05T11:23:24.017Z,43.79
2022-12-05T11:25:53.501Z,43.66
2022-12-05T11:28:34.378Z,43.39
2022-12-05T11:31:08.486Z,43.81
2022-12-05T11:33:40.579Z,43.55
2022-12-05T11:36:15.582Z,43.55
2022-12-05T11:38:44.450Z,43.68
2022-12-05T11:41:39.344Z,43.73
2022-12-05T11:44:23.483Z,43.62
2022-12-05T11:47:04.138Z,44.00
2022-12-05T11:49:47.948Z,43.51
2022-12-05T11:52:27.702Z,43.33
2022-12-05T11:55:05.296Z,43.03
2022-12-05T11:57:52.759Z,42.80
2022-12-05T12:00:26.129Z,42.17
2022-12-05T12:03:21.522Z,40.96
2022-12-05T12:05:59.624Z,40.61
2022-12-05T12:08:30.267Z,40.56
2022-12-05T12:11:12.550Z,41.46
2022-12-05T12:13:52.674Z,42.58
2022-12-05T12:16:28.163Z,42.99
2022-12-05T12:19:10.556Z,43.45
2022-12-05T12:21:52.965Z,43.79
2022-12-05T12:24:31.049Z,43.70
2022-12-05T12:27:10.253Z,43.41
2022-12-05T12:29:51.693Z,43.78
2022-12-05T12:32:30.416Z,42.88
2022-12-05T12:35:26.580Z,43.72
2022-12-05T12:38:10.324Z,43.79
2022-12-05T12:40:47.019Z,43.67
2022-12-05T12:43:52.711Z,43.97
2022-12-05T12:46:31.224Z,44.19
2022-12-05T12:49:13.646Z,44.18
2022-12-05T12:51:49.818Z,44.34
2022-12-05T12:55:05.323Z,44.52
2022-12-05T12:57:48.449Z,43.86
2022-12-05T13:00:24.839Z,44.48
2022-12-05T13:02:57.999Z,44.47
2022-12-05T13:05:34.481Z,44.60
2022-12-05T13:08:11.605Z,44.62
2022-12-05T13:10:43.764Z,44.69
2022-12-05T13:13:15.636Z,44.73
2022-12-05T13:15:48.450Z,44.60
2022-12-05T13:18:19.016Z,44.88
2022-12-05T13:20:51.105Z,44.79
2022-12-05T13:23:24.144Z,45.05
2022-12-05T13:25:55.463Z,44.52
2022-12-05T13:28:29.828Z,44.50
2022-12-05T13:31:01.893Z,44.66
2022-12-05T13:33:34.509Z,44.73
2022-12-05T13:36:27.908Z,44.69
2022-12-05T13:39:20.790Z,45.27
2022-12-05T13:42:09.409Z,45.17
2022-12-05T13:44:42.141Z,44.30
2022-12-05T13:47:24.911Z,42.63
2022-12-05T13:49:57.682Z,42.94
2022-12-05T13:52:30.425Z,43.54
2022-12-05T13:55:06.543Z,43.39
2022-12-05T13:57:50.418Z,43.57
2022-12-05T14:00:28.369Z,43.35
2022-12-05T14:02:59.261Z,43.31
2022-12-05T14:05:45.913Z,44.43
2022-12-05T14:08:46.764Z,44.63
2022-12-05T14:11:16.668Z,44.26
2022-12-05T14:13:46.071Z,44.14
2022-12-05T14:16:49.480Z,44.63
2022-12-05T14:19:34.694Z,44.38
2022-12-05T14:22:17.757Z,44.50
2022-12-05T14:24:56.948Z,44.33
2022-12-05T14:27:43.287Z,44.59
2022-12-05T14:30:20.113Z,44.80
2022-12-05T14:32:48.898Z,44.60
2022-12-05T14:35:23.267Z,44.56
2022-12-05T14:37:54.319Z,44.78
2022-12-05T14:40:30.622Z,44.94
2022-12-05T14:43:03.081Z,44.88
2022-12-05T14:45:35.756Z,44.29
2022-12-05T14:48:06.621Z,44.42
2022-12-05T14:50:42.382Z,44.89
2022-12-05T14:53:25.462Z,45.74
2022-12-05T14:55:57.415Z,44.77
2022-12-05T14:58:35.111Z,44.48
2022-12-05T15:01:08.956Z,44.75
2022-12-05T15:03:40.287Z,44.53
2022-12-05T15:06:17.767Z,44.91
2022-12-05T15:08:50.565Z,44.62
2022-12-05T15:11:29.122Z,44.63
2022-12-05T15:14:06.755Z,44.87
2022-12-05T15:16:39.453Z,44.94
2022-12-05T15:19:15.922Z,44.55
2022-12-05T15:21:48.023Z,44.88
2022-12-05T15:24:17.927Z,44.59
2022-12-05T15:26:49.245Z,44.72
2022-12-05T15:29:27.915Z,44.50
2022-12-05T15:31:58.419Z,44.52
2022-12-05T15:34:31.814Z,45.34
2022-12-05T15:37:05.620Z,45.29
2022-12-05T15:39:53.535Z,46.05
2022-12-05T15:42:29.281Z,45.76
2022-12-05T15:45:16.983Z,45.89
2022-12-05T15:47:47.456Z,45.76
2022-12-05T15:50:17.203Z,45.87
2022-12-05T15:52:48.787Z,45.79
2022-12-05T15:55:22.166Z,45.70
2022-12-05T15:57:56.072Z,45.52
2022-12-05T16:00:27.573Z,45.61
2022-12-05T16:03:01.835Z,45.73
2022-12-05T16:05:35.277Z,45.30
2022-12-05T16:08:06.086Z,45.28
2022-12-05T16:10:35.502Z,45.40
2022-12-05T16:13:06.715Z,45.17
2022-12-05T16:15:36.578Z,45.41
2022-12-05T16:18:07.096Z,45.42
2022-12-05T16:20:37.391Z,44.90
2022-12-05T16:23:22.488Z,44.83
2022-12-05T16:25:52.116Z,44.82
2022-12-05T16:28:22.420Z,44.86
2022-12-05T16:30:57.804Z,45.03
2022-12-05T16:33:28.694Z,44.91
2022-12-05T16:36:07.951Z,45.10
2022-12-05T16:38:36.771Z,45.03
2022-12-05T16:41:08.567Z,44.94
2022-12-05T16:43:45.873Z,44.95
2022-12-05T16:46:46.869Z,44.85
2022-12-05T16:49:34.235Z,44.64
2022-12-05T16:52:14.063Z,45.12
2022-12-05T16:54:46.058Z,44.55
2022-12-05T16:57:17.316Z,44.97
2022-12-05T16:59:48.300Z,44.85
2022-12-05T17:02:19.184Z,44.81
2022-12-05T17:04:47.825Z,44.46
2022-12-05T17:07:16.491Z,44.79
2022-12-05T17:09:44.928Z,45.06
2022-12-05T17:12:18.963Z,44.92
2022-12-05T17:14:48.145Z,45.14
2022-12-05T17:17:18.947Z,45.19
2022-12-05T17:19:47.417Z,44.97
2022-12-05T17:22:16.552Z,44.78
2022-12-05T17:24:44.985Z,44.81
2022-12-05T17:27:13.919Z,44.67
2022-12-05T17:29:42.423Z,44.96
2022-12-05T17:32:11.615Z,44.52
2022-12-05T17:34:41.865Z,44.93
2022-12-05T17:37:10.292Z,44.55
2022-12-05T17:39:38.811Z,44.63
2022-12-05T17:42:08.432Z,44.41
2022-12-05T17:44:37.047Z,44.35
2022-12-05T17:47:08.194Z,44.53
2022-12-05T17:49:36.887Z,44.33
2022-12-05T17:52:21.472Z,44.41
2022-12-05T17:54:51.145Z,44.59
2022-12-05T17:57:19.624Z,44.45
2022-12-05T17:59:48.063Z,44.26
2022-12-05T18:02:17.406Z,44.40
2022-12-05T18:04:46.298Z,44.15
2022-12-05T18:07:16.699Z,44.15
2022-12-05T18:09:45.128Z,44.15
2022-12-05T18:12:13.588Z,44.35
2022-12-05T18:14:42.135Z,44.02
2022-12-05T18:17:10.647Z,44.13
2022-12-05T18:19:39.180Z,44.01
2022-12-05T18:22:07.669Z,44.20
2022-12-05T18:24:37.477Z,44.20
2022-12-05T18:27:05.919Z,44.14
2022-12-05T18:29:34.348Z,43.89
2022-12-05T18:32:02.782Z,44.15
2022-12-05T18:34:31.275Z,43.79
2022-12-05T18:36:59.831Z,43.88
2022-12-05T18:39:28.361Z,43.70
2022-12-05T18:41:58.108Z,43.66
2022-12-05T18:44:26.566Z,43.81
2022-12-05T18:46:55.018Z,43.74
2022-12-05T18:49:24.054Z,43.94
2022-12-05T18:51:52.603Z,43.47
2022-12-05T18:54:21.314Z,43.26
2022-12-05T18:56:52.654Z,43.22
2022-12-05T18:59:23.297Z,42.85
2022-12-05T19:01:51.760Z,42.83
2022-12-05T19:04:21.715Z,42.90
2022-12-05T19:06:52.055Z,43.29
2022-12-05T19:09:23.665Z,42.99
2022-12-05T19:11:54.824Z,43.18
2022-12-05T19:14:25.894Z,43.11
2022-12-05T19:16:59.801Z,43.50
2022-12-05T19:19:29.236Z,43.23
2022-12-05T19:21:58.769Z,43.16
2022-12-05T19:24:27.467Z,43.49
2022-12-05T19:26:55.970Z,43.25
2022-12-05T19:29:25.874Z,43.24
2022-12-05T19:31:54.298Z,43.47
2022-12-05T19:34:24.253Z,43.51
2022-12-05T19:36:52.742Z,43.21
2022-12-05T19:39:26.708Z,42.54
2022-12-05T19:41:57.537Z,42.08
2022-12-05T19:44:28.037Z,42.21
2022-12-05T19:46:56.424Z,42.04
2022-12-05T19:49:28.467Z,42.43
2022-12-05T19:51:56.949Z,42.60
2022-12-05T19:54:25.593Z,42.81
2022-12-05T19:56:58.130Z,42.92
2022-12-05T19:59:27.980Z,42.86
2022-12-05T20:01:56.470Z,43.01
2022-12-05T20:04:25.095Z,42.86
2022-12-05T20:06:53.491Z,43.07
2022-12-05T20:09:23.343Z,43.12
2022-12-05T20:11:55.511Z,43.03
2022-12-05T20:14:26.171Z,43.15
2022-12-05T20:16:56.214Z,43.11
2022-12-05T20:19:25.086Z,43.21
2022-12-05T20:21:55.310Z,43.28
2022-12-05T20:24:23.807Z,43.12
2022-12-05T20:26:52.889Z,42.89
2022-12-05T20:29:21.334Z,42.97
2022-12-05T20:31:56.507Z,43.16
2022-12-05T20:34:26.377Z,43.10
2022-12-05T20:36:55.219Z,43.26
2022-12-05T20:39:24.697Z,43.10
2022-12-05T20:41:53.227Z,43.35
2022-12-05T20:44:22.194Z,43.31
2022-12-05T20:46:51.048Z,43.41
2022-12-05T20:49:20.981Z,43.15
2022-12-05T20:51:50.911Z,43.29
2022-12-05T20:54:19.588Z,43.45
2022-12-05T20:56:49.064Z,43.23
2022-12-05T20:59:17.697Z,43.53
2022-12-05T21:01:47.511Z,43.38
2022-12-05T21:04:16.416Z,43.44
2022-12-05T21:06:46.510Z,43.38
2022-12-05T21:09:26.184Z,43.61
2022-12-05T21:11:54.923Z,43.46
2022-12-05T21:14:23.633Z,43.49
2022-12-05T21:16:52.805Z,43.63
2022-12-05T21:19:21.608Z,43.40
2022-12-05T21:21:50.842Z,43.55
2022-12-05T21:24:20.788Z,43.28
2022-12-05T21:26:50.383Z,43.40
2022-12-05T21:29:19.170Z,43.31
2022-12-05T21:31:50.777Z,43.54
2022-12-05T21:34:21.142Z,43.46
2022-12-05T21:36:49.792Z,43.41
2022-12-05T21:39:18.243Z,43.38
2022-12-05T21:41:48.070Z,43.33
2022-12-05T21:44:16.667Z,43.38
2022-12-05T21:46:45.214Z,43.35
2022-12-05T21:49:13.694Z,43.46
2022-12-05T21:51:42.216Z,43.44
2022-12-05T21:54:10.903Z,43.43
2022-12-05T21:56:39.792Z,43.28
2022-12-05T21:59:09.599Z,43.32
2022-12-05T22:01:38.133Z,43.52
2022-12-05T22:04:06.690Z,43.43
2022-12-05T22:06:35.339Z,43.36
2022-12-05T22:09:05.016Z,43.43
2022-12-05T22:11:33.534Z,43.47
2022-12-05T22:14:02.019Z,43.41
2022-12-05T22:16:33.389Z,43.59
2022-12-05T22:19:03.048Z,43.43
2022-12-05T22:21:33.824Z,43.50
2022-12-05T22:24:02.466Z,43.32
2022-12-05T22:26:30.909Z,43.28
2022-12-05T22:28:59.361Z,43.56
2022-12-05T22:31:27.825Z,43.33
2022-12-05T22:33:57.651Z,43.34
2022-12-05T22:36:26.106Z,43.42
2022-12-05T22:38:54.759Z,43.40
2022-12-05T22:41:25.136Z,43.53
2022-12-05T22:43:57.255Z,43.56
2022-12-05T22:46:27.222Z,43.30
2022-12-05T22:48:58.292Z,43.36
2022-12-05T22:51:27.770Z,43.57
2022-12-05T22:53:56.731Z,43.33
2022-12-05T22:56:26.779Z,43.55
2022-12-05T22:58:56.479Z,43.50
2022-12-05T23:01:26.789Z,43.44
2022-12-05T23:03:58.311Z,43.43
2022-12-05T23:06:28.366Z,43.44
2022-12-05T23:08:57.576Z,43.38
2022-12-05T23:11:27.404Z,43.55
2022-12-05T23:14:01.307Z,43.36
2022-12-05T23:16:34.488Z,43.43
2022-12-05T23:19:08.155Z,43.29
2022-12-05T23:21:38.595Z,43.44
2022-12-05T23:24:09.148Z,43.26
2022-12-05T23:26:39.130Z,43.31
2022-12-05T23:29:08.215Z,43.13
2022-12-05T23:31:36.668Z,43.44
2022-12-05T23:34:06.574Z,43.36
2022-12-05T23:36:35.640Z,43.31
2022-12-05T23:39:04.605Z,43.39
2022-12-05T23:41:33.074Z,43.39
2022-12-05T23:44:01.479Z,43.38
2022-12-05T23:46:30.723Z,43.26
2022-12-05T23:48:59.210Z,43.33
2022-12-05T23:51:30.210Z,43.16
2022-12-05T23:54:00.348Z,43.37
2022-12-05T23:56:31.349Z,43.59
2022-12-05T23:59:00.114Z,43.28
